KACY/ACY METAR and TAF weather

Enter ICAO airport designator
Station Type Date Time Source
KACY METAR 2022/09/26 08:54 UTC NOAA

KACY 260854Z AUTO 23005KT 10SM CLR 17/14 A2970 RMK AO2 SLP055 T01720144 51004


Station Type Date Time Source
KACY Decoded METAR 2022/09/26 08:54 UTC NOAA

ATLANTIC CITY INTERNATIONAL, NJ, United States (KACY) 39-28N 74-35W 35M
Sep 26, 2022 - 04:54 AM EDT / 2022.09.26 0854 UTC
Wind: from the SW (230 degrees) at 6 MPH (5 KT):0
Visibility: 10 mile(s):0
Sky conditions: clear
Temperature: 63.0 F (17.2 C)
Dew Point: 57.9 F (14.4 C)
Relative Humidity: 83%
Pressure (altimeter): 29.7 in. Hg (1005 hPa)
Pressure tendency: 0.01 inches (0.4 hPa) higher than three hours ago
ob: KACY 260854Z AUTO 23005KT 10SM CLR 17/14 A2970 RMK AO2 SLP055 T01720144 51004
cycle: 9

Station Type Date Time Source
KACY TAF 2022/09/26 06:31 UTC NOAA

TAF KACY 260525Z 2606/2706 25006KT P6SM SCT120 BKN250
FM260800 VRB03KT 6SM BR FEW120
FM261300 26010KT P6SM FEW050
FM261600 24014G24KT P6SM SCT060
FM262200 24008KT P6SM SCT070
FM270300 28004KT P6SM SCT250

Example: see airport list